KHTS/HTS METAR and TAF weather

Enter ICAO airport designator
Station Type Date Time Source
KHTS METAR 2019/12/14 19:10 UTC NOAA

KHTS 141910Z 26006KT 10SM -RA OVC010 04/03 A2965 RMK AO2 CIG 008V014 P0000 T00440028


Station Type Date Time Source
KHTS Decoded METAR 2019/12/14 19:10 UTC NOAA

TRI-STATE AIRPORT, WV, United States (KHTS) 38-22N 082-33W 254M
Dec 14, 2019 - 02:10 PM EST / 2019.12.14 1910 UTC
Wind: from the W (260 degrees) at 7 MPH (6 KT):0
Visibility: 10 mile(s):0
Sky conditions: overcast
Weather: light rain
Precipitation last hour: A trace
Temperature: 39.9 F (4.4 C)
Dew Point: 37.0 F (2.8 C)
Relative Humidity: 89%
Pressure (altimeter): 29.65 in. Hg (1004 hPa)
ob: KHTS 141910Z 26006KT 10SM -RA OVC010 04/03 A2965 RMK AO2 CIG 008V014 P0000 T00440028
cycle: 19

Station Type Date Time Source
KHTS TAF 2019/12/14 18:40 UTC NOAA

TAF KHTS 141737Z 1418/1518 29009G14KT 6SM -RA BR SCT009 OVC013
FM142000 28009KT P6SM OVC015
FM151500 25008KT P6SM OVC022

Example: see airport list